Time;durP1;ratioP1;P1;durP2;ratioP2;P2;SDS_P1;SDS_P2;PMS_P1;PMS_P2;Temp;Humidity;BMP_temperature;BMP_pressure;BME280_temperature;BME280_humidity;BME280_pressure;Samples;Min_cycle;Max_cycle;Signal;HPM_P1;HPM_P2
2022/04/14 05:00:34;;;;;;;8.90;3.70;;;11.50;99.90;;;;;;5881293;24;21040;31
2022/04/14 05:03:01;;;;;;;8.65;3.95;;;11.60;99.90;;;;;;4787534;29;20398;-81
2022/04/14 05:05:28;;;;;;;7.22;3.55;;;11.50;99.90;;;;;;4789023;30;20479;-82
2022/04/14 05:07:56;;;;;;;6.43;3.50;;;11.50;99.90;;;;;;4789345;30;20055;-81
2022/04/14 05:10:23;;;;;;;7.18;3.55;;;11.50;99.90;;;;;;4788887;29;20399;-80
2022/04/14 05:12:50;;;;;;;7.55;3.75;;;11.60;99.90;;;;;;4789162;30;20150;-81
2022/04/14 05:15:17;;;;;;;7.25;3.60;;;11.30;99.90;;;;;;4789137;30;20067;-82
2022/04/14 05:17:46;;;;;;;7.85;3.35;;;11.20;99.90;;;;;;4789408;30;20059;-81
2022/04/14 05:20:13;;;;;;;8.18;3.67;;;10.90;99.90;;;;;;4788832;30;20047;-81
2022/04/14 05:22:40;;;;;;;7.25;3.67;;;10.90;99.90;;;;;;4789006;30;20484;-80
2022/04/14 05:25:08;;;;;;;7.70;3.90;;;10.90;99.90;;;;;;4789148;30;20061;-80
2022/04/14 05:27:35;;;;;;;9.23;4.13;;;10.80;99.90;;;;;;4789253;30;20095;-82
2022/04/14 05:30:02;;;;;;;9.35;4.10;;;10.80;99.90;;;;;;4788738;30;20061;-82
2022/04/14 05:32:29;;;;;;;10.13;3.85;;;11.00;99.90;;;;;;4788519;30;20523;-82
2022/04/14 05:34:58;;;;;;;9.52;3.92;;;11.00;99.90;;;;;;4788697;30;20057;-81
2022/04/14 05:37:25;;;;;;;9.40;3.97;;;11.00;99.90;;;;;;4788935;30;20051;-82
2022/04/14 05:39:52;;;;;;;8.38;3.78;;;11.00;99.90;;;;;;4788814;30;20055;-81
2022/04/14 05:42:19;;;;;;;9.25;3.85;;;11.00;99.90;;;;;;4788577;30;20057;-82
2022/04/14 05:44:47;;;;;;;9.82;4.22;;;11.00;99.90;;;;;;4788718;30;20461;-81
2022/04/14 05:47:14;;;;;;;8.88;4.07;;;11.10;99.90;;;;;;4788891;30;20059;-80
2022/04/14 05:49:41;;;;;;;8.18;3.65;;;11.30;99.90;;;;;;4788823;30;20055;-82
2022/04/14 05:52:10;;;;;;;8.20;3.95;;;11.30;99.90;;;;;;4788474;30;20535;-81
2022/04/14 05:54:37;;;;;;;7.00;3.53;;;11.40;99.90;;;;;;4772875;30;20055;-82
2022/04/14 05:57:05;;;;;;;7.15;3.88;;;11.50;99.90;;;;;;4788734;30;20138;-81
2022/04/14 05:59:32;;;;;;;8.48;3.90;;;11.50;99.90;;;;;;4788189;30;20047;-82
2022/04/14 06:01:59;;;;;;;8.23;3.85;;;11.50;99.90;;;;;;4800318;29;20483;-81
2022/04/14 06:04:26;;;;;;;7.88;3.63;;;11.60;99.90;;;;;;4806518;29;20055;-82
2022/04/14 06:06:53;;;;;;;9.20;4.10;;;11.60;99.90;;;;;;4806318;29;20057;-81
2022/04/14 06:09:22;;;;;;;7.50;4.20;;;11.50;99.90;;;;;;4806214;29;20066;-81
2022/04/14 06:11:49;;;;;;;11.10;4.70;;;11.60;99.90;;;;;;4806330;29;20605;-81
2022/04/14 06:14:16;;;;;;;12.90;4.53;;;11.70;99.90;;;;;;4806159;29;20069;-82
2022/04/14 06:16:43;;;;;;;10.82;4.75;;;11.70;99.90;;;;;;4806355;29;20063;-82
2022/04/14 06:19:10;;;;;;;11.85;5.13;;;11.70;99.90;;;;;;4790184;29;20340;-83
2022/04/14 06:21:37;;;;;;;10.05;5.75;;;11.70;99.90;;;;;;4807165;29;20413;-81
2022/04/14 06:24:06;;;;;;;11.70;5.28;;;11.80;99.90;;;;;;4793917;29;20054;-82
2022/04/14 06:26:34;;;;;;;11.02;5.95;;;11.90;99.90;;;;;;4809803;29;20090;-83
2022/04/14 06:29:02;;;;;;;13.25;6.63;;;11.90;99.90;;;;;;4809897;29;20137;-82
2022/04/14 06:31:29;;;;;;;10.57;6.60;;;11.90;99.90;;;;;;4809902;29;20054;-82
2022/04/14 06:33:56;;;;;;;11.63;7.05;;;12.00;99.90;;;;;;4809831;29;20081;-83
2022/04/14 06:36:23;;;;;;;13.02;7.80;;;12.10;99.90;;;;;;4809674;29;20051;-82
2022/04/14 06:38:50;;;;;;;12.77;7.07;;;12.20;99.90;;;;;;4809700;29;20051;-83
2022/04/14 06:41:17;;;;;;;12.50;7.35;;;12.30;99.90;;;;;;4809672;29;20051;-81
2022/04/14 06:43:49;;;;;;;12.40;8.60;;;12.40;99.90;;;;;;4809604;29;20481;-83
2022/04/14 06:46:16;;;;;;;15.15;8.45;;;12.40;99.90;;;;;;4809488;29;20047;-82
2022/04/14 06:48:43;;;;;;;18.30;9.90;;;12.50;99.90;;;;;;4809493;29;20133;-82
2022/04/14 06:51:10;;;;;;;14.85;8.82;;;12.50;99.90;;;;;;4809549;29;20054;-82
2022/04/14 06:53:38;;;;;;;20.95;10.43;;;12.60;99.90;;;;;;4809317;29;20141;-82
2022/04/14 06:56:05;;;;;;;23.67;12.10;;;12.70;99.90;;;;;;4809297;29;20476;-84
2022/04/14 06:58:32;;;;;;;16.10;11.05;;;12.80;99.90;;;;;;4809704;29;20055;-83
2022/04/14 07:01:01;;;;;;;16.80;11.00;;;12.90;99.90;;;;;;4809712;29;20054;-82
2022/04/14 07:03:28;;;;;;;24.77;12.50;;;13.00;99.90;;;;;;4809278;29;20413;-82
2022/04/14 07:05:56;;;;;;;21.05;12.05;;;13.00;99.90;;;;;;4809280;29;20115;-82
2022/04/14 07:08:24;;;;;;;18.50;10.50;;;13.10;99.90;;;;;;4809159;29;20082;-81
2022/04/14 07:10:52;;;;;;;15.75;9.55;;;13.20;99.90;;;;;;4809542;29;20393;-81
2022/04/14 07:13:19;;;;;;;16.58;10.35;;;13.20;99.90;;;;;;4809282;29;20051;-82
2022/04/14 07:15:46;;;;;;;18.85;11.65;;;13.20;99.90;;;;;;4808899;29;20062;-82
2022/04/14 07:18:15;;;;;;;20.08;12.35;;;13.30;99.90;;;;;;4809003;29;20047;-83
2022/04/14 07:20:42;;;;;;;20.67;13.10;;;13.30;99.90;;;;;;4792602;29;20047;-82
2022/04/14 07:23:09;;;;;;;17.50;12.70;;;13.40;99.90;;;;;;4792890;29;20059;-82
2022/04/14 07:25:36;;;;;;;25.02;16.25;;;13.50;99.90;;;;;;4808863;29;20133;-83
2022/04/14 07:28:03;;;;;;;24.48;16.17;;;13.50;99.90;;;;;;4809936;29;20496;-83
2022/04/14 07:30:31;;;;;;;22.33;14.73;;;13.50;99.90;;;;;;4809760;29;20114;-81
2022/04/14 07:33:00;;;;;;;25.65;15.00;;;13.50;99.90;;;;;;4809797;29;20046;-82
2022/04/14 07:35:28;;;;;;;21.02;14.20;;;13.60;99.90;;;;;;4808993;29;20527;-84
2022/04/14 07:37:55;;;;;;;22.25;14.55;;;13.70;99.90;;;;;;4808946;29;20050;-84
2022/04/14 07:40:24;;;;;;;24.73;14.93;;;13.70;99.90;;;;;;4808986;29;20141;-84
2022/04/14 07:42:52;;;;;;;23.13;15.65;;;13.80;99.90;;;;;;4808937;29;20055;-84
2022/04/14 07:45:19;;;;;;;21.80;14.27;;;13.80;99.90;;;;;;4808855;29;20082;-83
2022/04/14 07:47:47;;;;;;;29.13;17.48;;;13.80;99.90;;;;;;4808902;29;20464;-83
2022/04/14 07:50:17;;;;;;;23.75;16.48;;;13.80;99.90;;;;;;4808865;29;20079;-83
2022/04/14 07:52:48;;;;;;;25.05;16.35;;;13.90;99.90;;;;;;4808950;29;20137;-84
2022/04/14 07:55:20;;;;;;;25.17;17.52;;;13.90;99.90;;;;;;4808782;29;20489;-84
2022/04/14 07:57:47;;;;;;;25.33;16.50;;;13.90;99.90;;;;;;4808931;29;20519;-84
2022/04/14 08:00:16;;;;;;;24.42;15.75;;;14.00;99.90;;;;;;4808527;29;20146;-84
2022/04/14 08:02:54;;;;;;;28.13;16.98;;;14.10;99.90;;;;;;4808566;29;20101;-85
2022/04/14 08:05:23;;;;;;;19.90;13.98;;;14.10;99.90;;;;;;4808414;29;20050;-84
2022/04/14 08:07:51;;;;;;;28.67;17.63;;;14.10;99.90;;;;;;4808362;29;20047;-84
2022/04/14 08:10:18;;;;;;;22.40;14.48;;;14.20;99.90;;;;;;4808313;29;20057;-84
2022/04/14 08:12:47;;;;;;;24.15;15.55;;;14.30;99.90;;;;;;4808451;29;20142;-85
2022/04/14 08:15:15;;;;;;;22.15;14.10;;;14.30;99.90;;;;;;4808306;29;20047;-84
2022/04/14 08:17:43;;;;;;;20.88;14.10;;;14.40;99.90;;;;;;4808372;29;20089;-84
2022/04/14 08:20:13;;;;;;;16.98;11.93;;;14.40;99.90;;;;;;4808330;29;20457;-83
2022/04/14 08:22:49;;;;;;;24.00;16.27;;;14.60;99.90;;;;;;4805757;29;20055;-84
2022/04/14 08:25:21;;;;;;;20.83;14.35;;;14.60;99.90;;;;;;4806129;29;20497;-84
2022/04/14 08:27:49;;;;;;;19.98;14.18;;;14.70;99.90;;;;;;4806050;29;20106;-83
2022/04/14 08:30:18;;;;;;;26.65;16.75;;;14.70;99.90;;;;;;4805971;29;20055;-85
2022/04/14 08:32:46;;;;;;;19.88;14.25;;;14.60;99.90;;;;;;4805685;29;20051;-83
2022/04/14 08:35:15;;;;;;;19.38;14.00;;;14.70;99.90;;;;;;4805971;29;20070;-85
2022/04/14 08:37:44;;;;;;;19.15;13.60;;;14.80;99.90;;;;;;4804508;29;20110;-84
2022/04/14 08:40:14;;;;;;;21.40;15.30;;;14.80;99.90;;;;;;4804432;29;20520;-85
2022/04/14 08:42:52;;;;;;;22.75;16.05;;;14.80;99.90;;;;;;4805433;29;20051;-84
2022/04/14 08:45:23;;;;;;;22.08;14.98;;;15.00;99.90;;;;;;4805342;29;20055;-84
2022/04/14 08:47:51;;;;;;;19.20;13.68;;;15.00;99.90;;;;;;4805461;29;20082;-82
2022/04/14 08:50:18;;;;;;;23.40;15.60;;;15.00;99.90;;;;;;4805560;29;20532;-83
2022/04/14 08:52:45;;;;;;;25.02;15.00;;;15.00;99.90;;;;;;4805807;29;20055;-85
2022/04/14 08:55:14;;;;;;;24.02;14.45;;;15.00;99.90;;;;;;4805781;29;20513;-83
2022/04/14 08:57:43;;;;;;;20.90;14.25;;;15.00;99.90;;;;;;4805312;29;20054;-83
2022/04/14 09:00:13;;;;;;;18.45;13.02;;;15.10;99.90;;;;;;4804792;29;20062;-83
2022/04/14 09:02:43;;;;;;;21.17;13.05;;;15.20;99.90;;;;;;4804994;29;20528;-85
2022/04/14 09:05:11;;;;;;;23.10;15.27;;;15.40;99.90;;;;;;4805132;29;20062;-84
2022/04/14 09:07:38;;;;;;;22.95;14.10;;;15.40;99.90;;;;;;4805611;29;20481;-84
2022/04/14 09:10:07;;;;;;;21.80;14.88;;;15.30;99.90;;;;;;4804569;29;20524;-85
2022/04/14 09:12:37;;;;;;;18.00;11.95;;;15.30;99.90;;;;;;4804586;29;20061;-84
2022/04/14 09:15:08;;;;;;;15.73;10.30;;;15.50;99.90;;;;;;4805476;29;20047;-83
2022/04/14 09:17:35;;;;;;;16.77;12.05;;;15.50;99.90;;;;;;4807129;29;20054;-86
2022/04/14 09:20:28;;;;;;;23.95;14.60;;;15.60;99.90;;;;;;4807245;29;20046;-84
2022/04/14 09:23:15;;;;;;;19.88;13.63;;;15.70;99.90;;;;;;4806492;29;20050;-85
2022/04/14 09:25:43;;;;;;;23.25;15.02;;;15.70;99.90;;;;;;4806741;29;20059;-83
2022/04/14 09:28:12;;;;;;;19.17;13.05;;;15.70;99.90;;;;;;4807201;29;20420;-86
2022/04/14 09:30:42;;;;;;;20.60;13.73;;;15.70;99.90;;;;;;4807075;29;20394;-82
2022/04/14 09:33:17;;;;;;;15.75;11.35;;;15.70;99.90;;;;;;4806271;29;20055;-84
2022/04/14 09:35:44;;;;;;;16.92;11.23;;;15.90;99.90;;;;;;4804213;29;20055;-86
2022/04/14 09:38:13;;;;;;;17.52;11.23;;;15.90;99.90;;;;;;4790792;29;20064;-84
2022/04/14 09:40:43;;;;;;;16.20;11.02;;;16.00;99.90;;;;;;4806424;29;20062;-85
2022/04/14 09:43:10;;;;;;;15.98;10.77;;;16.10;99.90;;;;;;4806645;29;20061;-85
2022/04/14 09:45:37;;;;;;;15.10;9.82;;;16.10;99.90;;;;;;4805431;29;20083;-84
2022/04/14 09:48:10;;;;;;;17.50;11.35;;;16.20;99.90;;;;;;4790690;29;20077;-84
2022/04/14 09:50:40;;;;;;;14.15;10.38;;;16.20;99.90;;;;;;4804808;29;20545;-85
2022/04/14 09:53:10;;;;;;;15.63;9.98;;;16.30;99.90;;;;;;4809640;29;20078;-84
2022/04/14 09:55:39;;;;;;;22.30;13.77;;;16.50;99.90;;;;;;4819477;29;20082;-83
2022/04/14 09:58:15;;;;;;;22.50;16.08;;;16.40;99.90;;;;;;4817594;29;20065;-83
2022/04/14 10:00:45;;;;;;;25.13;16.45;;;16.50;99.90;;;;;;4818702;29;20221;-86
2022/04/14 10:03:16;;;;;;;19.67;13.40;;;16.40;99.90;;;;;;4814981;29;20054;-85
2022/04/14 10:05:44;;;;;;;18.30;12.27;;;16.60;99.90;;;;;;4812964;29;20055;-83
2022/04/14 10:08:13;;;;;;;23.42;15.73;;;16.60;99.90;;;;;;4811215;29;20058;-81
2022/04/14 10:10:43;;;;;;;23.13;15.35;;;16.70;99.90;;;;;;4807371;29;20131;-82
2022/04/14 10:13:12;;;;;;;20.20;14.60;;;16.80;99.90;;;;;;4789166;29;20054;-80
2022/04/14 10:15:41;;;;;;;18.73;14.88;;;16.90;99.90;;;;;;4806917;29;20056;-83
2022/04/14 10:18:10;;;;;;;20.58;13.43;;;16.90;99.90;;;;;;4810081;29;20470;-81
2022/04/14 10:20:42;;;;;;;22.05;15.43;;;17.10;99.90;;;;;;4808089;29;20051;-81
2022/04/14 10:23:11;;;;;;;22.15;14.05;;;17.20;99.60;;;;;;4806797;29;20057;-81
2022/04/14 10:25:39;;;;;;;18.05;11.90;;;17.30;99.60;;;;;;4806750;29;20069;-81
2022/04/14 10:28:10;;;;;;;20.55;13.35;;;17.10;99.70;;;;;;4806092;29;20051;-81
2022/04/14 10:30:37;;;;;;;17.85;10.40;;;17.20;99.90;;;;;;4805974;29;20069;-80
2022/04/14 10:33:05;;;;;;;16.33;11.70;;;17.30;99.80;;;;;;4806063;29;20055;-82
2022/04/14 10:35:33;;;;;;;17.73;10.45;;;17.40;99.90;;;;;;4806113;29;20055;-81
2022/04/14 10:38:12;;;;;;;14.13;9.57;;;17.50;99.90;;;;;;4805986;29;20058;-82
2022/04/14 10:40:47;;;;;;;16.00;9.73;;;17.60;99.80;;;;;;4805844;29;20237;-78
2022/04/14 10:43:19;;;;;;;10.77;7.55;;;17.80;99.50;;;;;;4804604;29;20089;-79
2022/04/14 10:45:51;;;;;;;15.02;9.88;;;17.90;99.60;;;;;;4805879;29;20088;-80
2022/04/14 10:48:39;;;;;;;13.25;9.02;;;18.00;99.20;;;;;;4805681;29;20459;-80
2022/04/14 10:51:23;;;;;;;13.60;9.38;;;18.00;99.00;;;;;;4805721;29;20109;-80
2022/04/14 10:53:57;;;;;;;16.92;10.98;;;18.10;98.90;;;;;;4805932;29;20063;-80
2022/04/14 10:56:46;;;;;;;13.98;9.15;;;18.10;99.10;;;;;;4805729;29;20138;-80
2022/04/14 10:59:14;;;;;;;14.27;8.52;;;18.10;98.80;;;;;;4806009;29;20047;-80
2022/04/14 11:02:04;;;;;;;10.85;7.25;;;18.30;98.30;;;;;;4806462;29;20067;-80
2022/04/14 11:04:38;;;;;;;11.10;7.82;;;18.40;98.20;;;;;;4806120;29;20066;-80
2022/04/14 11:07:13;;;;;;;10.90;6.88;;;18.50;98.20;;;;;;4805902;29;20053;-81
2022/04/14 11:09:57;;;;;;;12.15;8.52;;;18.60;97.60;;;;;;4808895;29;20061;-80
2022/04/14 11:12:26;;;;;;;;;;;18.60;98.00;;;;;;4809039;29;20097;-79
2022/04/14 11:14:58;;;;;;;12.20;6.53;;;18.60;98.00;;;;;;4809958;29;19925;-78
2022/04/14 11:17:58;;;;;;;11.48;7.43;;;18.80;97.70;;;;;;4808875;29;20055;-79
2022/04/14 11:20:58;;;;;;;12.50;8.27;;;18.70;97.20;;;;;;4808290;29;20051;-74
2022/04/14 11:23:29;;;;;;;13.25;8.90;;;18.80;96.10;;;;;;4788311;30;20066;-76
2022/04/14 11:26:12;;;;;;;20.13;12.50;;;18.90;95.90;;;;;;4799850;29;20469;-77
2022/04/14 11:28:43;;;;;;;14.82;8.80;;;18.80;96.60;;;;;;4805950;29;20452;-76
2022/04/14 11:31:27;;;;;;;10.73;6.63;;;18.90;95.40;;;;;;4806090;29;20061;-76
2022/04/14 11:33:57;;;;;;;12.18;7.45;;;19.20;96.40;;;;;;4806033;29;20063;-77
2022/04/14 11:36:29;;;;;;;11.10;6.55;;;19.20;96.00;;;;;;4805963;29;20062;-76
2022/04/14 11:39:01;;;;;;;11.35;6.57;;;19.40;94.50;;;;;;4806120;29;20138;-76
2022/04/14 11:41:44;;;;;;;13.30;8.40;;;19.60;94.20;;;;;;4805983;29;20104;-77
2022/04/14 11:44:13;;;;;;;13.45;9.55;;;19.50;93.80;;;;;;4803668;29;20608;-78
2022/04/14 11:46:45;;;;;;;10.35;6.63;;;19.40;93.00;;;;;;4805650;29;20065;-76
2022/04/14 11:49:14;;;;;;;13.13;7.78;;;19.60;92.80;;;;;;4805888;29;20062;-76
2022/04/14 11:51:47;;;;;;;13.27;9.38;;;19.60;92.30;;;;;;4805612;29;20378;-76
2022/04/14 11:54:21;;;;;;;14.18;8.77;;;19.80;93.90;;;;;;4805880;29;20051;-76
2022/04/14 11:56:54;;;;;;;15.23;9.95;;;19.90;93.30;;;;;;4805587;29;20455;-77
2022/04/14 11:59:30;;;;;;;11.75;8.40;;;19.80;93.90;;;;;;4805823;29;20061;-79
2022/04/14 12:02:02;;;;;;;16.80;8.70;;;20.10;94.00;;;;;;4805406;29;20067;-77
2022/04/14 12:04:47;;;;;;;13.25;8.93;;;20.20;93.50;;;;;;5087933;27;20389;-77
2022/04/14 12:07:15;;;;;;;10.98;8.18;;;20.20;92.80;;;;;;5067593;28;20053;-76
2022/04/14 12:09:45;;;;;;;14.15;7.88;;;20.40;92.90;;;;;;5067661;28;20055;-76
2022/04/14 12:12:16;;;;;;;10.98;7.13;;;20.50;92.40;;;;;;5067616;28;20045;-76
2022/04/14 12:14:45;;;;;;;12.85;6.78;;;20.70;92.30;;;;;;5067669;28;20053;-76
2022/04/14 12:17:13;;;;;;;17.33;9.43;;;20.80;91.10;;;;;;5067912;28;20467;-75
2022/04/14 12:19:42;;;;;;;12.00;7.07;;;20.60;91.20;;;;;;5067702;28;20086;-75
2022/04/14 12:22:10;;;;;;;9.48;6.72;;;20.90;91.10;;;;;;5067165;28;20049;-77
2022/04/14 12:24:38;;;;;;;14.52;8.43;;;21.00;90.40;;;;;;5067431;28;20053;-75
2022/04/14 12:27:06;;;;;;;12.13;8.13;;;21.10;90.00;;;;;;5067293;28;20144;-75
2022/04/14 12:29:33;;;;;;;13.48;7.50;;;20.90;87.60;;;;;;5067444;28;20386;-76
2022/04/14 12:32:11;;;;;;;12.95;7.63;;;21.10;88.00;;;;;;5067436;28;20053;-78
2022/04/14 12:34:42;;;;;;;11.43;6.13;;;21.20;88.50;;;;;;5066964;28;20055;-77
2022/04/14 12:37:14;;;;;;;12.98;8.23;;;21.30;85.80;;;;;;5067819;28;20044;-78
2022/04/14 12:39:55;;;;;;;12.35;7.20;;;21.30;83.30;;;;;;5066963;28;20524;-77
2022/04/14 12:42:26;;;;;;;9.70;6.07;;;21.50;85.00;;;;;;5067066;28;20049;-74
2022/04/14 12:44:53;;;;;;;12.25;7.07;;;21.80;84.70;;;;;;5065099;28;20045;-76
2022/04/14 12:47:30;;;;;;;17.98;8.57;;;21.50;82.00;;;;;;5066933;28;20053;-77
2022/04/14 12:49:58;;;;;;;12.98;7.07;;;21.50;82.60;;;;;;5066844;28;20045;-78
2022/04/14 12:52:27;;;;;;;11.52;5.55;;;21.70;81.10;;;;;;5066908;28;20057;-77
2022/04/14 12:54:55;;;;;;;12.75;7.18;;;21.90;79.00;;;;;;5066874;28;20106;-77
2022/04/14 12:57:24;;;;;;;10.95;7.55;;;22.10;78.30;;;;;;5066315;28;20485;-77
2022/04/14 13:00:12;;;;;;;10.93;6.72;;;22.00;77.30;;;;;;5066504;28;20049;-77
2022/04/14 13:02:40;;;;;;;13.93;6.60;;;22.10;74.40;;;;;;5066413;28;20051;-78
2022/04/14 13:05:13;;;;;;;14.60;8.60;;;22.00;75.60;;;;;;5066438;28;20045;-77
2022/04/14 13:07:50;;;;;;;11.73;6.60;;;22.10;75.10;;;;;;5066393;28;20048;-77
2022/04/14 13:10:28;;;;;;;10.90;5.90;;;22.40;77.40;;;;;;5066231;28;20167;-79
2022/04/14 13:12:56;;;;;;;10.55;6.22;;;22.20;75.60;;;;;;5066611;28;20048;-77
2022/04/14 13:15:24;;;;;;;11.20;6.65;;;22.30;72.80;;;;;;5056944;28;20063;-78
2022/04/14 13:17:54;;;;;;;12.13;5.47;;;22.30;72.60;;;;;;5053230;28;20242;-77
2022/04/14 13:20:24;;;;;;;12.73;6.45;;;22.50;72.10;;;;;;5052968;28;20409;-77
2022/04/14 13:22:53;;;;;;;12.27;8.10;;;22.80;73.10;;;;;;5052768;28;20084;-75
2022/04/14 13:25:21;;;;;;;10.13;5.70;;;22.90;74.60;;;;;;5052793;28;20045;-74
2022/04/14 13:27:48;;;;;;;10.55;6.22;;;22.90;74.40;;;;;;5053052;28;20126;-75
2022/04/14 13:30:15;;;;;;;12.68;7.95;;;23.50;72.30;;;;;;5052675;28;20049;-74
2022/04/14 13:32:42;;;;;;;10.85;5.85;;;23.80;70.50;;;;;;5053093;28;20045;-78
2022/04/14 13:35:10;;;;;;;8.80;4.75;;;23.70;66.90;;;;;;5051252;28;20111;-79
2022/04/14 13:37:37;;;;;;;12.77;6.65;;;24.20;68.30;;;;;;5051884;28;20088;-77
2022/04/14 13:40:09;;;;;;;9.80;6.47;;;24.10;66.60;;;;;;5052291;28;20057;-78
2022/04/14 13:42:36;;;;;;;10.77;6.30;;;24.20;66.00;;;;;;5052315;28;20052;-79
2022/04/14 13:45:04;;;;;;;11.13;6.85;;;24.10;68.60;;;;;;5050087;28;20051;-75
2022/04/14 13:47:31;;;;;;;12.50;7.03;;;24.20;66.10;;;;;;5052301;28;20055;-74
2022/04/14 13:49:58;;;;;;;10.05;5.47;;;23.90;64.80;;;;;;5052063;28;20053;-78
2022/04/14 13:52:25;;;;;;;12.60;6.63;;;24.20;66.60;;;;;;5052163;28;20045;-77
2022/04/14 13:54:52;;;;;;;12.35;7.03;;;24.00;66.00;;;;;;5052010;28;20498;-76
2022/04/14 13:57:21;;;;;;;12.90;7.25;;;23.90;64.60;;;;;;5051683;28;20144;-75
2022/04/14 13:59:48;;;;;;;12.85;8.20;;;23.40;66.40;;;;;;5051980;28;20056;-76
2022/04/14 14:02:15;;;;;;;10.07;5.40;;;22.80;67.30;;;;;;5051880;28;20053;-75
2022/04/14 14:04:42;;;;;;;11.95;6.50;;;22.70;67.70;;;;;;5051570;28;20064;-77
2022/04/14 14:07:09;;;;;;;9.85;5.80;;;22.40;68.70;;;;;;5051076;28;20071;-76
2022/04/14 14:09:36;;;;;;;11.27;6.47;;;22.40;70.20;;;;;;5051357;28;20504;-78
2022/04/14 14:12:04;;;;;;;12.80;7.32;;;22.40;70.40;;;;;;5051613;28;20052;-77
2022/04/14 14:14:33;;;;;;;13.27;8.80;;;22.10;73.30;;;;;;5051856;28;20085;-77
2022/04/14 14:17:00;;;;;;;18.40;9.02;;;21.90;74.30;;;;;;5051555;28;20041;-79
2022/04/14 14:19:27;;;;;;;16.15;9.38;;;22.10;74.90;;;;;;5051653;28;20045;-77
2022/04/14 14:21:54;;;;;;;11.25;8.20;;;22.00;76.50;;;;;;5051080;28;20053;-77
2022/04/14 14:24:23;;;;;;;13.43;7.60;;;22.50;75.30;;;;;;5051488;28;20052;-79
2022/04/14 14:26:50;;;;;;;13.30;8.18;;;22.60;75.50;;;;;;5050414;28;20477;-77
2022/04/14 14:29:17;;;;;;;12.57;8.55;;;23.40;73.20;;;;;;5051809;28;20063;-75
2022/04/14 14:31:46;;;;;;;11.13;7.43;;;23.40;72.60;;;;;;5052081;28;20139;-77
2022/04/14 14:34:14;;;;;;;12.30;8.00;;;23.30;72.50;;;;;;5051423;28;20053;-75
2022/04/14 14:36:42;;;;;;;12.85;6.88;;;23.90;70.50;;;;;;5051790;28;20049;-76
2022/04/14 14:39:09;;;;;;;13.85;8.60;;;24.00;70.10;;;;;;5051475;28;20053;-79
2022/04/14 14:41:37;;;;;;;16.60;9.20;;;24.40;68.00;;;;;;5051332;28;20045;-76
2022/04/14 14:44:05;;;;;;;11.35;6.85;;;24.40;66.50;;;;;;5049238;28;20049;-79
2022/04/14 14:46:32;;;;;;;8.85;5.32;;;24.80;68.20;;;;;;5050913;28;20049;-80
2022/04/14 14:49:00;;;;;;;11.10;5.53;;;25.10;66.40;;;;;;5051400;28;20059;-78
2022/04/14 14:51:28;;;;;;;9.30;5.55;;;25.00;65.20;;;;;;5051581;28;20053;-78
2022/04/14 14:53:55;;;;;;;12.00;7.35;;;24.50;67.20;;;;;;5051241;28;20056;-79
2022/04/14 14:56:22;;;;;;;9.60;4.63;;;25.10;64.50;;;;;;5051357;28;20470;-78
2022/04/14 15:01:34;;;;;;;12.30;7.32;;;24.60;65.20;;;;;;5051062;28;20063;-79
2022/04/14 15:04:02;;;;;;;10.43;6.75;;;24.00;68.20;;;;;;5050795;28;20049;-77
2022/04/14 15:06:29;;;;;;;9.30;6.15;;;23.90;70.00;;;;;;5051300;28;20131;-74
2022/04/14 15:08:56;;;;;;;10.32;7.57;;;24.10;68.30;;;;;;5048024;28;20084;-75
2022/04/14 15:11:23;;;;;;;10.80;7.30;;;23.70;69.50;;;;;;5050983;28;20135;-76
2022/04/14 15:13:50;;;;;;;14.32;7.28;;;23.60;70.60;;;;;;5049149;28;20048;-75
2022/04/14 15:16:17;;;;;;;12.93;7.18;;;22.90;72.50;;;;;;5050805;28;20056;-73
2022/04/14 15:18:44;;;;;;;13.57;9.63;;;22.50;74.70;;;;;;5050367;28;20052;-74
2022/04/14 15:21:13;;;;;;;12.88;8.73;;;22.00;76.90;;;;;;5049972;28;20052;-75
2022/04/14 15:23:40;;;;;;;12.70;8.13;;;22.20;76.10;;;;;;5031397;28;20466;-78
2022/04/14 15:26:08;;;;;;;12.90;7.63;;;22.10;75.70;;;;;;5030516;28;20053;-75
2022/04/14 15:28:35;;;;;;;12.63;8.10;;;22.10;77.10;;;;;;5043823;28;20045;-76
2022/04/14 15:31:04;;;;;;;13.00;9.43;;;22.00;76.20;;;;;;5050765;28;20045;-78
2022/04/14 15:33:34;;;;;;;12.43;7.63;;;22.00;77.40;;;;;;5049730;28;20052;-74
2022/04/14 15:36:02;;;;;;;13.35;9.02;;;21.80;77.20;;;;;;5050689;28;20486;-75
2022/04/14 15:38:30;;;;;;;11.40;7.28;;;21.70;78.30;;;;;;5049858;28;20041;-75
2022/04/14 15:40:58;;;;;;;14.57;9.32;;;22.00;78.40;;;;;;5030544;28;20578;-74
2022/04/14 15:43:25;;;;;;;9.80;7.20;;;21.90;77.60;;;;;;5033492;28;20045;-74
2022/04/14 15:45:52;;;;;;;12.25;7.97;;;22.00;78.70;;;;;;5043902;28;20056;-76
2022/04/14 15:48:19;;;;;;;13.15;8.73;;;21.80;78.00;;;;;;5050169;28;20247;-77
2022/04/14 15:50:47;;;;;;;16.77;10.15;;;21.80;78.50;;;;;;5049995;28;20406;-74
2022/04/14 15:53:16;;;;;;;11.05;6.53;;;22.00;78.30;;;;;;5050146;28;20506;-74
2022/04/14 15:55:47;;;;;;;8.70;5.60;;;22.70;78.00;;;;;;5050273;28;20049;-75
2022/04/14 15:58:15;;;;;;;11.68;7.20;;;23.10;76.60;;;;;;5050012;28;20071;-74
2022/04/14 16:00:42;;;;;;;9.93;6.18;;;23.40;72.80;;;;;;5050371;28;20053;-73
2022/04/14 16:03:13;;;;;;;11.32;7.50;;;23.40;74.10;;;;;;5050017;28;20049;-73
2022/04/14 16:05:41;;;;;;;8.73;5.88;;;22.90;71.70;;;;;;5050102;28;20056;-74
2022/04/14 16:08:09;;;;;;;12.85;7.07;;;22.70;73.90;;;;;;5049503;28;20096;-74
2022/04/14 16:13:22;;;;;;;12.40;9.23;;;21.90;76.40;;;;;;5049771;28;20179;-75
2022/04/14 16:15:51;;;;;;;18.17;9.82;;;21.90;77.10;;;;;;5050019;28;20059;-74
2022/04/14 16:18:18;;;;;;;15.88;9.38;;;21.60;77.80;;;;;;5049021;28;20060;-75
2022/04/14 16:20:45;;;;;;;15.93;8.75;;;21.50;79.00;;;;;;5050129;28;20418;-75
2022/04/14 16:23:12;;;;;;;13.15;9.40;;;21.40;79.10;;;;;;5049416;28;20053;-73
2022/04/14 16:25:39;;;;;;;17.35;10.55;;;21.30;79.20;;;;;;5049767;28;20106;-75
2022/04/14 16:28:07;;;;;;;13.38;9.88;;;21.00;78.90;;;;;;5047893;28;20049;-74
2022/04/14 16:30:35;;;;;;;12.95;7.95;;;20.90;79.40;;;;;;5048863;28;20127;-75
2022/04/14 16:33:04;;;;;;;15.40;8.95;;;20.90;80.40;;;;;;5049437;28;20049;-74
2022/04/14 16:35:31;;;;;;;12.50;8.68;;;20.90;81.60;;;;;;5049625;28;20409;-75
2022/04/14 16:37:59;;;;;;;12.75;8.27;;;21.00;82.00;;;;;;5049254;28;20049;-79
2022/04/14 16:40:26;;;;;;;16.27;8.65;;;21.00;82.70;;;;;;5049991;28;20488;-78
2022/04/14 16:42:53;;;;;;;14.15;8.27;;;20.90;82.40;;;;;;5050142;28;20055;-78
2022/04/14 16:45:20;;;;;;;14.77;10.23;;;20.80;82.50;;;;;;5047711;28;20060;-78
2022/04/14 16:47:49;;;;;;;14.43;9.60;;;20.50;83.40;;;;;;5043362;28;20047;-79
2022/04/14 16:50:16;;;;;;;13.85;9.20;;;20.50;84.40;;;;;;5046986;28;20133;-77
2022/04/14 16:52:45;;;;;;;11.50;9.02;;;20.50;84.30;;;;;;5047340;28;20057;-77
2022/04/14 16:55:13;;;;;;;13.75;9.60;;;20.40;85.60;;;;;;5051348;28;20044;-77
2022/04/14 16:57:41;;;;;;;13.55;10.15;;;20.40;86.00;;;;;;5050871;28;20102;-79
2022/04/14 17:00:10;;;;;;;10.00;6.88;;;20.30;86.10;;;;;;5052180;28;20072;-79
2022/04/14 17:02:39;;;;;;;13.10;9.80;;;20.30;86.40;;;;;;5052032;28;20069;-81
2022/04/14 17:05:08;;;;;;;15.32;10.13;;;20.20;87.60;;;;;;5048530;28;20057;-81
2022/04/14 17:07:36;;;;;;;14.13;8.57;;;20.20;88.20;;;;;;5035075;28;20053;-82
2022/04/14 17:10:03;;;;;;;10.60;7.38;;;20.20;89.50;;;;;;5034139;28;20554;-83
2022/04/14 17:12:31;;;;;;;12.32;8.40;;;20.20;89.60;;;;;;5045477;28;20051;-77
2022/04/14 17:14:58;;;;;;;13.63;10.10;;;19.90;90.60;;;;;;5052142;28;20049;-81
2022/04/14 17:17:25;;;;;;;12.65;9.02;;;19.70;91.70;;;;;;5053255;28;20057;-78
2022/04/14 17:19:53;;;;;;;14.35;9.80;;;19.60;92.30;;;;;;5054391;28;20049;-80
2022/04/14 17:25:07;;;;;;;10.02;7.00;;;19.50;93.20;;;;;;5051789;28;20668;-78
2022/04/14 17:27:34;;;;;;;13.60;9.23;;;19.50;93.60;;;;;;5053441;28;20413;-79
2022/04/14 17:30:01;;;;;;;9.88;7.47;;;19.40;93.70;;;;;;5053300;28;20060;-82
2022/04/14 17:32:28;;;;;;;10.82;7.00;;;19.60;93.50;;;;;;5053298;28;20053;-78
2022/04/14 17:34:56;;;;;;;8.85;6.05;;;19.60;93.70;;;;;;5052949;28;20049;-78
2022/04/14 17:37:25;;;;;;;11.52;7.60;;;19.60;93.80;;;;;;5053256;28;20095;-79
2022/04/14 17:39:52;;;;;;;12.10;7.22;;;19.50;93.90;;;;;;5052753;28;20055;-79
2022/04/14 17:42:20;;;;;;;13.40;8.75;;;19.50;94.10;;;;;;5052656;28;20048;-78
2022/04/14 17:44:47;;;;;;;12.10;8.25;;;19.30;94.40;;;;;;5051135;28;20049;-78
2022/04/14 17:47:14;;;;;;;15.05;9.98;;;19.20;94.40;;;;;;5052444;28;20059;-79
2022/04/14 17:49:41;;;;;;;12.18;8.90;;;19.10;94.30;;;;;;5051972;28;20437;-79
2022/04/14 17:52:08;;;;;;;14.90;10.75;;;19.20;94.10;;;;;;5051235;28;20053;-81
2022/04/14 17:54:37;;;;;;;14.93;10.75;;;19.10;93.80;;;;;;5050617;28;20114;-80